createdAt,value
2022-08-05T00:00:16.004Z,21.40
2022-08-05T00:02:44.127Z,21.40
2022-08-05T00:06:01.699Z,21.40
2022-08-05T00:08:32.710Z,21.40
2022-08-05T00:11:00.589Z,21.40
2022-08-05T00:13:38.174Z,21.30
2022-08-05T00:16:10.846Z,21.30
2022-08-05T00:18:40.463Z,21.30
2022-08-05T00:21:09.496Z,21.30
2022-08-05T00:23:46.408Z,21.30
2022-08-05T00:26:15.044Z,21.20
2022-08-05T00:28:43.799Z,21.20
2022-08-05T00:31:13.114Z,21.20
2022-08-05T00:34:54.215Z,21.10
2022-08-05T00:37:11.169Z,21.10
2022-08-05T00:39:14.480Z,21.10
2022-08-05T00:41:46.887Z,21.00
2022-08-05T00:44:23.361Z,21.00
2022-08-05T00:47:01.861Z,21.00
2022-08-05T00:49:32.515Z,21.00
2022-08-05T00:52:00.366Z,21.00
2022-08-05T00:54:29.998Z,20.90
2022-08-05T00:56:57.238Z,20.90
2022-08-05T01:01:52.098Z,20.80
2022-08-05T01:04:20.102Z,20.70
2022-08-05T01:06:54.959Z,20.80
2022-08-05T01:09:22.233Z,20.70
2022-08-05T01:11:51.771Z,20.70
2022-08-05T01:14:27.855Z,20.60
2022-08-05T01:17:10.910Z,20.50
2022-08-05T01:20:00.935Z,20.50
2022-08-05T01:22:34.579Z,20.50
2022-08-05T01:25:13.824Z,20.40
2022-08-05T01:27:59.265Z,20.40
2022-08-05T01:30:34.727Z,20.40
2022-08-05T01:33:08.352Z,20.40
2022-08-05T01:35:51.111Z,20.40
2022-08-05T01:38:27.483Z,20.40
2022-08-05T01:41:01.364Z,20.40
2022-08-05T01:43:29.956Z,20.40
2022-08-05T01:45:57.863Z,20.40
2022-08-05T01:48:26.253Z,20.40
2022-08-05T01:50:55.348Z,20.40
2022-08-05T01:53:55.214Z,20.40
2022-08-05T01:56:11.903Z,20.40
2022-08-05T01:58:44.927Z,20.30
2022-08-05T02:01:24.672Z,20.30
2022-08-05T02:03:53.362Z,20.30
2022-08-05T02:06:37.176Z,20.30
2022-08-05T02:09:05.731Z,20.30
2022-08-05T02:11:52.645Z,20.20
2022-08-05T02:14:32.056Z,20.20
2022-08-05T02:17:05.546Z,20.20
2022-08-05T02:19:35.865Z,20.20
2022-08-05T02:22:08.509Z,20.20
2022-08-05T02:24:37.717Z,20.20
2022-08-05T02:27:09.940Z,20.10
2022-08-05T02:29:59.782Z,20.10
2022-08-05T02:32:29.404Z,20.10
2022-08-05T02:35:01.987Z,20.10
2022-08-05T02:37:37.252Z,20.00
2022-08-05T02:40:05.347Z,20.10
2022-08-05T02:42:37.293Z,20.00
2022-08-05T02:45:05.222Z,20.10
2022-08-05T02:47:58.482Z,20.00
2022-08-05T02:50:22.176Z,20.00
2022-08-05T02:52:51.075Z,20.00
2022-08-05T02:55:54.942Z,20.00
2022-08-05T02:58:14.784Z,20.00
2022-08-05T03:00:46.006Z,20.00
2022-08-05T03:03:23.460Z,20.00
2022-08-05T03:06:56.940Z,20.00
2022-08-05T03:08:42.531Z,19.90
2022-08-05T03:11:55.263Z,19.90
2022-08-05T03:14:08.150Z,19.90
2022-08-05T03:16:35.702Z,19.90
2022-08-05T03:19:12.598Z,20.00
2022-08-05T03:21:48.728Z,20.00
2022-08-05T03:24:29.667Z,20.00
2022-08-05T03:26:58.191Z,20.00
2022-08-05T03:29:44.543Z,20.00
2022-08-05T03:32:14.408Z,20.00
2022-08-05T03:34:42.170Z,20.00
2022-08-05T03:37:18.387Z,20.00
2022-08-05T03:40:01.467Z,20.00
2022-08-05T03:42:29.420Z,20.10
2022-08-05T03:47:30.550Z,20.00
2022-08-05T03:50:02.677Z,20.00
2022-08-05T03:52:38.008Z,20.00
2022-08-05T03:56:01.608Z,20.00
2022-08-05T03:58:11.115Z,20.00
2022-08-05T04:00:41.912Z,20.10
2022-08-05T04:05:54.298Z,20.00
2022-08-05T04:08:34.905Z,20.00
2022-08-05T04:11:04.830Z,20.00
2022-08-05T04:13:50.213Z,20.00
2022-08-05T04:16:24.131Z,20.00
2022-08-05T04:18:54.185Z,20.00
2022-08-05T04:22:08.358Z,20.10
2022-08-05T04:24:18.736Z,20.10
2022-08-05T04:26:49.464Z,20.20
2022-08-05T04:29:17.177Z,20.20
2022-08-05T04:31:44.170Z,20.30
2022-08-05T04:34:29.578Z,20.40
2022-08-05T04:36:59.216Z,20.40
2022-08-05T04:39:27.995Z,20.40
2022-08-05T04:41:55.545Z,20.50
2022-08-05T04:44:29.404Z,20.50
2022-08-05T04:49:38.608Z,20.60
2022-08-05T04:52:12.695Z,20.60
2022-08-05T04:54:39.786Z,20.70
2022-08-05T04:57:06.823Z,20.70
2022-08-05T04:59:39.131Z,20.80
2022-08-05T05:02:36.914Z,20.80
2022-08-05T05:05:01.663Z,20.80
2022-08-05T05:07:32.762Z,20.80
2022-08-05T05:10:05.499Z,20.90
2022-08-05T05:12:33.557Z,20.80
2022-08-05T05:15:03.866Z,20.80
2022-08-05T05:17:56.300Z,20.80
2022-08-05T05:20:28.722Z,20.80
2022-08-05T05:22:56.899Z,20.80
2022-08-05T05:25:32.693Z,20.80
2022-08-05T05:28:07.847Z,20.90
2022-08-05T05:30:36.751Z,20.90
2022-08-05T05:33:16.039Z,21.00
2022-08-05T05:35:48.269Z,21.00
2022-08-05T05:38:22.834Z,21.00
2022-08-05T05:40:55.919Z,21.10
2022-08-05T05:43:56.790Z,21.10
2022-08-05T05:48:48.028Z,21.20
2022-08-05T05:51:27.712Z,21.20
2022-08-05T05:53:59.504Z,21.20
2022-08-05T05:56:33.396Z,21.20
2022-08-05T05:59:06.183Z,21.30
2022-08-05T06:01:37.463Z,21.30
2022-08-05T06:04:07.032Z,21.50
2022-08-05T07:57:00.725Z,27.50
2022-08-05T07:59:08.505Z,27.80
2022-08-05T08:01:35.713Z,28.00
2022-08-05T08:04:37.366Z,28.40
2022-08-05T08:07:07.150Z,28.60
2022-08-05T08:09:34.972Z,29.00
2022-08-05T08:12:09.786Z,29.00
2022-08-05T08:14:41.951Z,29.20
2022-08-05T08:17:16.113Z,29.80
2022-08-05T08:20:43.382Z,30.10
2022-08-05T08:22:32.199Z,30.00
2022-08-05T08:25:03.458Z,29.70
2022-08-05T08:27:40.314Z,29.80
2022-08-05T08:30:30.027Z,30.00
2022-08-05T08:33:04.401Z,30.10
2022-08-05T08:35:41.584Z,30.20
2022-08-05T08:38:35.350Z,30.30
2022-08-05T08:41:05.815Z,30.40
2022-08-05T08:45:20.786Z,30.80
2022-08-05T08:46:23.134Z,30.30
2022-08-05T08:49:04.149Z,30.00
2022-08-05T08:52:03.623Z,30.00
2022-08-05T08:54:27.378Z,29.80
2022-08-05T08:56:56.592Z,29.70
2022-08-05T08:59:27.731Z,29.80
2022-08-05T09:02:01.238Z,29.90
2022-08-05T09:04:30.464Z,30.00
2022-08-05T09:06:58.303Z,30.20
2022-08-05T09:09:34.624Z,30.40
2022-08-05T09:12:15.284Z,30.90
2022-08-05T09:14:58.725Z,30.90
2022-08-05T09:17:42.334Z,30.90
2022-08-05T09:20:10.893Z,31.10
2022-08-05T09:23:05.278Z,31.30
2022-08-05T09:26:01.629Z,31.40
2022-08-05T09:28:32.125Z,31.60
2022-08-05T09:31:43.623Z,31.90
2022-08-05T09:34:07.217Z,32.00
2022-08-05T09:36:54.132Z,31.90
2022-08-05T09:39:41.570Z,31.70
2022-08-05T09:42:22.956Z,31.80
2022-08-05T09:44:52.866Z,31.90
2022-08-05T09:47:48.030Z,32.20
2022-08-05T09:50:37.737Z,32.60
2022-08-05T09:53:09.143Z,33.00
2022-08-05T09:55:56.898Z,33.80
2022-08-05T09:58:29.164Z,34.30
2022-08-05T10:00:57.534Z,34.80
2022-08-05T10:03:26.201Z,34.70
2022-08-05T10:06:14.751Z,34.70
2022-08-05T10:08:50.188Z,34.10
2022-08-05T10:11:21.283Z,34.50
2022-08-05T10:13:54.655Z,34.70
2022-08-05T10:16:37.959Z,34.40
2022-08-05T10:19:11.784Z,34.60
2022-08-05T10:21:40.101Z,34.90
2022-08-05T10:24:15.042Z,35.00
2022-08-05T10:26:51.996Z,35.30
2022-08-05T10:29:23.696Z,35.50
2022-08-05T10:32:52.111Z,35.60
2022-08-05T10:35:00.538Z,35.60
2022-08-05T10:37:40.031Z,35.70
2022-08-05T10:40:19.547Z,35.50
2022-08-05T10:42:48.755Z,35.00
2022-08-05T10:45:40.431Z,35.20
2022-08-05T10:48:31.809Z,35.60
2022-08-05T10:51:05.818Z,35.00
2022-08-05T10:53:54.505Z,34.90
2022-08-05T10:56:25.981Z,35.20
2022-08-05T10:58:53.342Z,35.30
2022-08-05T11:01:54.982Z,35.10
2022-08-05T11:04:22.407Z,35.10
2022-08-05T11:07:04.857Z,35.10
2022-08-05T11:09:46.721Z,34.70
2022-08-05T11:12:32.642Z,34.80
2022-08-05T11:15:19.363Z,35.00
2022-08-05T11:18:07.475Z,35.00
2022-08-05T11:20:43.754Z,34.70
2022-08-05T11:23:33.487Z,34.90
2022-08-05T11:26:28.953Z,34.90
2022-08-05T11:29:11.531Z,35.00
2022-08-05T11:31:57.972Z,35.30
2022-08-05T11:34:39.656Z,35.20
2022-08-05T11:38:26.510Z,35.00
2022-08-05T11:39:55.211Z,34.40
2022-08-05T11:42:28.278Z,34.10
2022-08-05T11:45:00.953Z,34.10
2022-08-05T11:47:48.443Z,34.20
2022-08-05T11:50:16.366Z,34.30
2022-08-05T11:52:44.106Z,34.50
2022-08-05T11:55:15.971Z,34.40
2022-08-05T11:58:09.151Z,34.40
2022-08-05T12:00:38.011Z,34.10
2022-08-05T12:03:23.927Z,33.90
2022-08-05T12:06:06.251Z,34.10
2022-08-05T12:08:48.032Z,34.70
2022-08-05T12:11:21.033Z,34.80
2022-08-05T12:14:04.047Z,34.90
2022-08-05T12:16:38.400Z,35.00
2022-08-05T12:19:08.330Z,34.90
2022-08-05T12:21:39.157Z,34.80
2022-08-05T12:24:07.870Z,34.60
2022-08-05T12:26:36.290Z,34.70
2022-08-05T12:29:16.426Z,34.60
2022-08-05T12:31:53.774Z,34.90
2022-08-05T12:34:28.552Z,35.10
2022-08-05T12:36:56.975Z,34.70
2022-08-05T12:39:27.894Z,34.20
2022-08-05T12:41:59.797Z,33.70
2022-08-05T12:44:33.914Z,33.20
2022-08-05T12:47:02.170Z,32.90
2022-08-05T12:50:03.228Z,32.60
2022-08-05T12:52:33.921Z,32.30
2022-08-05T12:55:22.268Z,32.20
2022-08-05T12:58:49.310Z,31.80
2022-08-05T13:01:59.784Z,31.60
2022-08-05T13:03:32.399Z,31.50
2022-08-05T13:06:01.105Z,31.30
2022-08-05T13:08:30.245Z,31.10
2022-08-05T13:11:04.246Z,31.10
2022-08-05T13:14:04.785Z,31.10
2022-08-05T13:16:25.331Z,31.10
2022-08-05T13:18:58.808Z,31.20
2022-08-05T13:21:28.606Z,31.30
2022-08-05T13:24:06.161Z,31.10
2022-08-05T13:26:36.183Z,30.90
2022-08-05T13:29:05.141Z,30.80
2022-08-05T13:31:33.981Z,30.70
2022-08-05T13:34:23.128Z,30.80
2022-08-05T13:36:53.597Z,30.70
2022-08-05T13:40:13.176Z,30.70
2022-08-05T13:42:14.560Z,30.70
2022-08-05T13:44:46.076Z,30.70
2022-08-05T13:47:35.754Z,30.80
2022-08-05T13:50:06.590Z,30.80
2022-08-05T13:52:36.909Z,30.70
2022-08-05T13:55:07.824Z,30.80
2022-08-05T13:57:51.598Z,30.70
2022-08-05T14:00:27.001Z,30.50
2022-08-05T14:02:56.326Z,30.40
2022-08-05T14:05:29.305Z,30.40
2022-08-05T14:08:21.396Z,30.50
2022-08-05T14:10:59.630Z,30.50
2022-08-05T14:13:30.466Z,30.60
2022-08-05T14:16:08.237Z,30.60
2022-08-05T14:18:38.147Z,30.50
2022-08-05T14:22:07.751Z,30.50
2022-08-05T14:23:52.419Z,30.40
2022-08-05T14:26:35.769Z,30.40
2022-08-05T14:29:15.870Z,30.50
2022-08-05T14:32:03.540Z,30.40
2022-08-05T14:34:34.950Z,30.40
2022-08-05T14:37:04.024Z,30.40
2022-08-05T14:39:32.129Z,30.40
2022-08-05T14:42:21.423Z,30.40
2022-08-05T14:44:49.161Z,30.40
2022-08-05T14:47:16.169Z,30.40
2022-08-05T14:49:59.246Z,30.30
2022-08-05T14:52:50.512Z,30.30
2022-08-05T14:55:15.950Z,30.30
2022-08-05T14:57:54.431Z,30.20
2022-08-05T15:00:27.771Z,30.20
2022-08-05T15:02:55.603Z,30.30
2022-08-05T15:05:29.576Z,30.20
2022-08-05T15:08:05.461Z,30.10
2022-08-05T15:10:41.552Z,30.20
2022-08-05T15:13:10.238Z,30.20
2022-08-05T15:15:55.933Z,30.10
2022-08-05T15:18:23.742Z,30.10
2022-08-05T15:20:51.200Z,30.20
2022-08-05T15:23:18.484Z,30.20
2022-08-05T15:25:52.619Z,30.20
2022-08-05T15:28:27.784Z,30.10
2022-08-05T15:30:55.451Z,30.10
2022-08-05T15:34:05.980Z,30.20
2022-08-05T15:36:17.344Z,30.20
2022-08-05T15:40:41.071Z,30.10
2022-08-05T15:41:57.617Z,30.10
2022-08-05T15:44:27.449Z,30.10
2022-08-05T15:46:55.808Z,30.00
2022-08-05T15:49:40.845Z,29.90
2022-08-05T15:52:16.958Z,29.90
2022-08-05T15:54:56.780Z,29.90
2022-08-05T15:57:24.056Z,29.90
2022-08-05T15:59:56.462Z,29.90
2022-08-05T16:02:25.517Z,29.90
2022-08-05T16:04:56.053Z,29.80
2022-08-05T16:07:23.198Z,29.80
2022-08-05T16:09:50.849Z,29.80
2022-08-05T16:12:21.074Z,29.70
2022-08-05T16:14:48.442Z,29.70
2022-08-05T16:17:16.228Z,29.60
2022-08-05T16:20:05.431Z,29.60
2022-08-05T16:22:33.914Z,29.50
2022-08-05T16:25:09.550Z,29.50
2022-08-05T16:28:00.413Z,29.50
2022-08-05T16:30:26.259Z,29.40
2022-08-05T16:32:54.375Z,29.40
2022-08-05T16:35:28.018Z,29.30
2022-08-05T16:38:15.524Z,29.30
2022-08-05T16:40:42.895Z,29.30
2022-08-05T16:43:19.247Z,29.30
2022-08-05T16:46:04.070Z,29.30
2022-08-05T16:48:35.283Z,29.20
2022-08-05T16:51:10.966Z,29.20
2022-08-05T16:54:04.019Z,29.10
2022-08-05T16:56:27.339Z,29.10
2022-08-05T16:58:54.380Z,29.10
2022-08-05T17:01:21.558Z,29.00
2022-08-05T17:03:51.996Z,29.00
2022-08-05T17:06:19.608Z,29.00
2022-08-05T17:08:53.036Z,28.90
2022-08-05T17:11:23.326Z,28.90
2022-08-05T17:14:00.153Z,28.90
2022-08-05T17:16:32.703Z,28.90
2022-08-05T17:19:00.512Z,28.90
2022-08-05T17:21:36.212Z,28.90
2022-08-05T17:24:28.316Z,28.90
2022-08-05T17:26:57.533Z,28.90
2022-08-05T17:29:33.223Z,28.80
2022-08-05T17:32:08.454Z,28.80
2022-08-05T17:34:38.254Z,28.80
2022-08-05T17:37:12.930Z,28.80
2022-08-05T17:39:56.069Z,28.80
2022-08-05T17:42:29.920Z,28.70
2022-08-05T17:44:59.980Z,28.70
2022-08-05T17:47:27.365Z,28.60
2022-08-05T17:50:03.870Z,28.60
2022-08-05T17:52:52.725Z,28.50
2022-08-05T17:55:22.398Z,28.50
2022-08-05T17:57:50.348Z,28.50
2022-08-05T18:00:17.588Z,28.40
2022-08-05T18:02:47.301Z,28.30
2022-08-05T18:05:16.926Z,28.30
2022-08-05T18:07:44.747Z,28.20
2022-08-05T18:10:20.620Z,28.10
2022-08-05T18:12:49.030Z,28.10
2022-08-05T18:15:16.004Z,28.00
2022-08-05T18:17:58.994Z,28.00
2022-08-05T18:20:31.493Z,27.90
2022-08-05T18:23:00.386Z,27.90
2022-08-05T18:25:32.773Z,27.80
2022-08-05T18:28:01.711Z,27.70
2022-08-05T18:30:33.277Z,27.70
2022-08-05T18:33:01.027Z,27.60
2022-08-05T18:36:00.527Z,27.60
2022-08-05T18:38:19.425Z,27.50
2022-08-05T18:41:57.138Z,27.40
2022-08-05T18:43:42.679Z,27.40
2022-08-05T18:46:15.482Z,27.30
2022-08-05T18:48:46.711Z,27.20
2022-08-05T18:52:05.983Z,27.20
2022-08-05T18:54:20.444Z,27.20
2022-08-05T18:56:51.208Z,27.20
2022-08-05T18:59:43.323Z,27.10
2022-08-05T19:02:11.291Z,27.10
2022-08-05T19:05:01.270Z,27.00
2022-08-05T19:07:45.861Z,27.00
2022-08-05T19:10:14.483Z,26.90
2022-08-05T19:12:41.738Z,26.80
2022-08-05T19:15:10.666Z,26.80
2022-08-05T19:18:09.557Z,26.80
2022-08-05T19:20:41.632Z,26.70
2022-08-05T19:23:22.388Z,26.70
2022-08-05T19:26:01.088Z,26.60
2022-08-05T19:28:30.709Z,26.60
2022-08-05T19:30:57.956Z,26.50
2022-08-05T19:33:35.090Z,26.50
2022-08-05T19:36:06.242Z,26.40
2022-08-05T19:38:40.061Z,26.40
2022-08-05T19:41:09.124Z,26.40
2022-08-05T19:44:06.549Z,26.40
2022-08-05T19:46:30.315Z,26.40
2022-08-05T19:49:03.583Z,26.30
2022-08-05T19:51:59.854Z,26.30
2022-08-05T19:54:25.563Z,26.20
2022-08-05T19:56:58.995Z,26.10
2022-08-05T20:00:00.901Z,26.10
2022-08-05T20:02:17.390Z,26.10
2022-08-05T20:04:45.791Z,26.00
2022-08-05T20:07:13.843Z,26.00
2022-08-05T20:09:53.600Z,26.00
2022-08-05T20:12:23.469Z,25.90
2022-08-05T20:14:52.310Z,25.90
2022-08-05T20:17:23.540Z,25.90
2022-08-05T20:19:56.600Z,25.80
2022-08-05T20:22:24.926Z,25.70
2022-08-05T20:24:54.025Z,25.70
2022-08-05T20:27:26.861Z,25.60
2022-08-05T20:29:58.330Z,25.60
2022-08-05T20:32:26.625Z,25.50
2022-08-05T20:34:54.170Z,25.50
2022-08-05T20:38:04.893Z,25.50
2022-08-05T20:40:09.692Z,25.40
2022-08-05T20:42:36.724Z,25.40
2022-08-05T20:45:05.320Z,25.40
2022-08-05T20:47:33.389Z,25.30
2022-08-05T20:50:02.026Z,25.20
2022-08-05T20:52:30.003Z,25.20
2022-08-05T20:55:15.966Z,25.20
2022-08-05T20:57:45.176Z,25.20
2022-08-05T21:00:35.020Z,25.10
2022-08-05T21:03:06.073Z,25.10
2022-08-05T21:05:48.149Z,25.10
2022-08-05T21:08:28.208Z,25.00
2022-08-05T21:11:10.058Z,25.00
2022-08-05T21:13:56.120Z,24.90
2022-08-05T21:16:30.184Z,24.90
2022-08-05T21:19:00.130Z,24.90
2022-08-05T21:21:39.750Z,24.80
2022-08-05T21:24:13.324Z,24.80
2022-08-05T21:26:44.108Z,24.80
2022-08-05T21:29:16.699Z,24.80
2022-08-05T21:31:44.111Z,24.70
2022-08-05T21:34:11.503Z,24.70
2022-08-05T21:36:39.491Z,24.60
2022-08-05T21:39:10.216Z,24.60
2022-08-05T21:41:42.114Z,24.60
2022-08-05T21:44:26.862Z,24.60
2022-08-05T21:46:54.287Z,24.60
2022-08-05T21:49:48.576Z,24.60
2022-08-05T21:52:22.218Z,24.50
2022-08-05T21:54:55.941Z,24.50
2022-08-05T21:57:31.998Z,24.50
2022-08-05T22:00:05.950Z,24.50
2022-08-05T22:02:39.941Z,24.40
2022-08-05T22:05:09.328Z,24.40
2022-08-05T22:07:39.740Z,24.40
2022-08-05T22:10:26.826Z,24.30
2022-08-05T22:12:57.170Z,24.30
2022-08-05T22:16:04.631Z,24.30
2022-08-05T22:18:12.894Z,24.30
2022-08-05T22:20:41.695Z,24.20
2022-08-05T22:24:01.401Z,24.20
2022-08-05T22:26:34.908Z,24.20
2022-08-05T22:29:02.852Z,24.20
2022-08-05T22:31:30.974Z,24.20
2022-08-05T22:34:20.171Z,24.20
2022-08-05T22:36:56.102Z,24.10
2022-08-05T22:39:30.982Z,24.10
2022-08-05T22:42:09.564Z,24.10
2022-08-05T22:44:39.277Z,24.10
2022-08-05T22:47:07.218Z,24.00
2022-08-05T22:50:19.446Z,24.00
2022-08-05T22:52:30.686Z,24.00
2022-08-05T22:55:02.028Z,24.00
2022-08-05T22:57:36.584Z,24.00
2022-08-05T23:00:05.635Z,24.00
2022-08-05T23:02:46.654Z,24.00
2022-08-05T23:05:15.041Z,24.00
2022-08-05T23:07:45.514Z,24.00
2022-08-05T23:10:20.090Z,24.00
2022-08-05T23:12:51.778Z,24.00
2022-08-05T23:15:22.511Z,24.00
2022-08-05T23:18:01.492Z,24.00
2022-08-05T23:20:32.169Z,24.00
2022-08-05T23:22:59.451Z,24.00
2022-08-05T23:25:53.204Z,24.00
2022-08-05T23:28:15.811Z,24.10
2022-08-05T23:30:53.107Z,24.00
2022-08-05T23:33:25.548Z,24.00
2022-08-05T23:36:06.361Z,24.00
2022-08-05T23:38:37.504Z,24.00
2022-08-05T23:41:04.480Z,24.00
2022-08-05T23:43:37.443Z,24.00
2022-08-05T23:46:20.716Z,24.00
2022-08-05T23:49:00.512Z,24.00
2022-08-05T23:51:56.396Z,24.00
2022-08-05T23:54:30.365Z,24.00
2022-08-05T23:57:04.122Z,24.00
